This is the latest recevied weather packets stored in our database for station/object DH4SBM. If no packets are shown the sender has not sent any weather packets the latest 10 day(s).
| Time | Temp. | Humidity | Pressure | Rain* | Wind** | Luminosity | Snow |
|---|---|---|---|---|---|---|---|
| 1778154520 | 11.67° C | 81% | 1016.4 hPa | 0 mm | - | 134 W/m² | - |
| 1778153921 | 11.67° C | 81% | 1016.3 hPa | 0 mm | - | 165 W/m² | - |
| 1778153320 | 11.67° C | 81% | 1016.3 hPa | 0 mm | - | 246 W/m² | - |
| 1778152719 | 11.67° C | 79% | 1016.3 hPa | 0 mm | - | 195 W/m² | - |
| 1778152118 | 11.67° C | 80% | 1016.2 hPa | 0 mm | - | 279 W/m² | - |
| 1778151518 | 12.22° C | 79% | 1016.2 hPa | 0 mm | - | 262 W/m² | - |
| 1778150918 | 12.22° C | 79% | 1016.3 hPa | 0 mm | - | 332 W/m² | - |
| 1778150319 | 12.22° C | 81% | 1016.4 hPa | 0 mm | - | 350 W/m² | - |
| 1778149719 | 11.67° C | 82% | 1016.4 hPa | 0 mm | - | 675 W/m² | - |
| 1778149119 | 11.11° C | 82% | 1016.3 hPa | 0 mm | - | 482 W/m² | - |
| 1778148518 | 11.11° C | 83% | 1016.3 hPa | 0 mm | - | 457 W/m² | - |
| 1778147443 | 10.56° C | 89% | 1016.1 hPa | 0 mm | - | 348 W/m² | - |
| 1778146843 | 10.56° C | 91% | 1016 hPa | 0 mm | - | 287 W/m² | - |
| 1778146541 | 10.56° C | 91% | 1016 hPa | 0 mm | - | 287 W/m² | - |
| 1778145342 | 9.44° C | 94% | 1015.6 hPa | 0 mm | - | 499 W/m² | - |
| 1778144742 | 9.44° C | 94% | 1015.6 hPa | 0 mm | - | 499 W/m² | - |
| 1778100342 | 10.56° C | 93% | 1010.5 hPa | 1.52 mm | - | 0 W/m² | - |
| 1778099741 | 10.56° C | 93% | 1010.5 hPa | 1.52 mm | - | 0 W/m² | - |
| 1778099141 | 10.56° C | 93% | 1010.2 hPa | 1.52 mm | - | 0 W/m² | - |
| 1778098541 | 11.11° C | 93% | 1010.1 hPa | 1.52 mm | - | 0 W/m² | - |
| 1778097941 | 11.11° C | 92% | 1010.2 hPa | 1.78 mm | - | 0 W/m² | - |
| 1778097341 | 11.11° C | 92% | 1010.1 hPa | 1.78 mm | - | 0 W/m² | - |
| 1778096741 | 11.11° C | 92% | 1009.9 hPa | 1.52 mm | - | 0 W/m² | - |
| 1778096141 | 11.11° C | 92% | 1009.8 hPa | 1.27 mm | - | 0 W/m² | - |
| 1778095541 | 11.67° C | 92% | 1009.6 hPa | 1.27 mm | - | 0 W/m² | - |
* Rain latest hour (hover to see other rain measurements)
** Current wind speed in m/s (hover to see current wind gust speed)